createdAt,value
2022-10-03T00:00:18.733Z,967.54
2022-10-03T00:02:18.782Z,967.52
2022-10-03T00:03:18.805Z,967.49
2022-10-03T00:04:18.732Z,967.5
2022-10-03T00:05:18.775Z,967.51
2022-10-03T00:06:18.755Z,967.52
2022-10-03T00:07:18.684Z,967.54
2022-10-03T00:09:18.847Z,967.56
2022-10-03T00:10:18.698Z,967.59
2022-10-03T00:11:18.795Z,967.57
2022-10-03T00:12:18.853Z,967.56
2022-10-03T00:13:18.711Z,967.55
2022-10-03T00:15:18.861Z,967.57
2022-10-03T00:16:18.914Z,967.59
2022-10-03T00:17:18.797Z,967.61
2022-10-03T00:18:20.021Z,967.59
2022-10-03T00:19:18.829Z,967.62
2022-10-03T00:21:18.865Z,967.66
2022-10-03T00:22:18.834Z,967.62
2022-10-03T00:23:18.793Z,967.66
2022-10-03T00:24:18.873Z,967.7
2022-10-03T00:25:18.839Z,967.68
2022-10-03T00:26:18.804Z,967.67
2022-10-03T00:27:20.075Z,967.72
2022-10-03T00:28:18.884Z,967.68
2022-10-03T00:29:18.811Z,967.73
2022-10-03T00:30:20.092Z,967.7
2022-10-03T00:31:18.874Z,967.75
2022-10-03T00:32:18.818Z,967.73
2022-10-03T00:33:18.917Z,967.72
2022-10-03T00:34:18.754Z,967.75
2022-10-03T00:35:18.811Z,967.77
2022-10-03T00:36:23.135Z,967.76
2022-10-03T00:37:18.857Z,967.79
2022-10-03T00:38:18.820Z,967.76
2022-10-03T00:39:18.889Z,967.79
2022-10-03T00:40:18.853Z,967.82
2022-10-03T00:41:20.159Z,967.81
2022-10-03T00:42:18.894Z,967.85
2022-10-03T00:43:18.860Z,967.83
2022-10-03T00:44:18.927Z,967.86
2022-10-03T00:45:18.791Z,967.87
2022-10-03T00:46:18.936Z,967.85
2022-10-03T00:47:18.965Z,967.84
2022-10-03T00:49:18.792Z,967.86
2022-10-03T00:50:18.937Z,967.87
2022-10-03T00:51:18.905Z,967.84
2022-10-03T00:52:18.870Z,967.88
2022-10-03T00:54:18.913Z,967.86
2022-10-03T00:55:18.870Z,967.89
2022-10-03T00:56:18.859Z,967.88
2022-10-03T00:57:18.916Z,967.9
2022-10-03T00:58:18.810Z,967.87
2022-10-03T00:59:18.815Z,967.88
2022-10-03T01:00:18.918Z,967.93
2022-10-03T01:01:18.968Z,967.95
2022-10-03T01:02:20.359Z,967.94
2022-10-03T01:03:18.925Z,968.02
2022-10-03T01:04:18.895Z,967.96
2022-10-03T01:05:18.952Z,967.97
2022-10-03T01:07:18.997Z,968.01
2022-10-03T01:08:18.971Z,967.97
2022-10-03T01:09:18.930Z,967.98
2022-10-03T01:10:19.829Z,967.97
2022-10-03T01:11:18.862Z,967.98
2022-10-03T01:12:18.846Z,967.93
2022-10-03T01:13:19.840Z,967.96
2022-10-03T01:15:18.856Z,967.92
2022-10-03T01:16:19.884Z,967.97
2022-10-03T01:17:18.867Z,967.96
2022-10-03T01:18:18.943Z,967.98
2022-10-03T01:19:18.874Z,967.97
2022-10-03T01:20:18.891Z,967.96
2022-10-03T01:21:18.938Z,967.97
2022-10-03T01:22:18.914Z,967.95
2022-10-03T01:23:18.987Z,967.93
2022-10-03T01:24:18.956Z,967.96
2022-10-03T01:27:18.987Z,967.97
2022-10-03T01:28:18.943Z,967.96
2022-10-03T01:29:18.986Z,967.99
2022-10-03T01:30:18.960Z,968.01
2022-10-03T01:31:19.102Z,967.99
2022-10-03T01:32:18.998Z,968.03
2022-10-03T01:33:18.965Z,968
2022-10-03T01:34:18.893Z,968.03
2022-10-03T01:36:18.895Z,968.08
2022-10-03T01:37:19.038Z,968.04
2022-10-03T01:39:18.973Z,968.07
2022-10-03T01:40:19.043Z,968.06
2022-10-03T01:41:19.009Z,968.02
2022-10-03T01:42:18.974Z,968.04
2022-10-03T01:43:18.926Z,968.08
2022-10-03T01:44:18.925Z,968.07
2022-10-03T01:45:18.978Z,968.05
2022-10-03T01:46:19.110Z,968.06
2022-10-03T01:47:19.022Z,968.08
2022-10-03T01:48:19.092Z,968.06
2022-10-03T01:49:18.941Z,968.07
2022-10-03T01:50:19.022Z,968.1
2022-10-03T01:51:19.086Z,968.08
2022-10-03T01:52:19.058Z,968.12
2022-10-03T01:53:19.028Z,968.14
2022-10-03T01:54:19.094Z,968.15
2022-10-03T01:56:19.036Z,968.14
2022-10-03T01:57:19.093Z,968.18
2022-10-03T01:58:19.091Z,968.16
2022-10-03T02:00:19.116Z,968.15
2022-10-03T02:01:19.142Z,968.13
2022-10-03T02:02:19.071Z,968.17
2022-10-03T02:03:19.111Z,968.15
2022-10-03T02:04:19.082Z,968.17
2022-10-03T02:05:19.041Z,968.16
2022-10-03T02:06:19.015Z,968.2
2022-10-03T02:07:19.081Z,968.18
2022-10-03T02:08:19.048Z,968.2
2022-10-03T02:09:19.007Z,968.21
2022-10-03T02:10:19.097Z,968.22
2022-10-03T02:11:18.992Z,968.24
2022-10-03T02:13:19.083Z,968.26
2022-10-03T02:14:19.001Z,968.27
2022-10-03T02:15:19.126Z,968.25
2022-10-03T02:18:19.010Z,968.24
2022-10-03T02:20:19.166Z,968.28
2022-10-03T02:21:19.026Z,968.3
2022-10-03T02:22:19.098Z,968.28
2022-10-03T02:23:19.058Z,968.33
2022-10-03T02:24:19.131Z,968.31
2022-10-03T02:25:19.105Z,968.34
2022-10-03T02:26:19.026Z,968.35
2022-10-03T02:27:19.140Z,968.34
2022-10-03T02:28:19.176Z,968.37
2022-10-03T02:29:19.097Z,968.4
2022-10-03T02:31:19.189Z,968.42
2022-10-03T02:33:19.153Z,968.43
2022-10-03T02:35:19.178Z,968.4
2022-10-03T02:36:19.148Z,968.42
2022-10-03T02:37:19.120Z,968.44
2022-10-03T02:38:19.185Z,968.45
2022-10-03T02:39:19.059Z,968.43
2022-10-03T02:40:19.227Z,968.4
2022-10-03T02:41:19.200Z,968.46
2022-10-03T02:42:19.058Z,968.49
2022-10-03T02:43:19.128Z,968.47
2022-10-03T02:44:19.196Z,968.48
2022-10-03T02:45:19.193Z,968.45
2022-10-03T02:46:19.130Z,968.47
2022-10-03T02:47:19.117Z,968.44
2022-10-03T02:48:31.073Z,968.43
2022-10-03T02:50:19.212Z,968.4
2022-10-03T02:52:19.101Z,968.43
2022-10-03T02:53:19.096Z,968.44
2022-10-03T02:54:19.169Z,968.41
2022-10-03T02:55:19.245Z,968.42
2022-10-03T02:57:19.195Z,968.41
2022-10-03T02:58:19.114Z,968.4
2022-10-03T02:59:19.218Z,968.44
2022-10-03T03:00:19.176Z,968.41
2022-10-03T03:01:19.276Z,968.42
2022-10-03T03:03:19.186Z,968.41
2022-10-03T03:04:19.260Z,968.42
2022-10-03T03:05:19.227Z,968.4
2022-10-03T03:06:19.196Z,968.41
2022-10-03T03:07:19.133Z,968.42
2022-10-03T03:08:19.232Z,968.41
2022-10-03T03:09:19.297Z,968.4
2022-10-03T03:10:19.132Z,968.45
2022-10-03T03:12:19.200Z,968.47
2022-10-03T03:13:20.487Z,968.46
2022-10-03T03:14:19.242Z,968.48
2022-10-03T03:16:19.308Z,968.46
2022-10-03T03:17:19.240Z,968.5
2022-10-03T03:18:19.207Z,968.48
2022-10-03T03:19:19.175Z,968.52
2022-10-03T03:20:19.162Z,968.51
2022-10-03T03:21:19.211Z,968.52
2022-10-03T03:22:19.279Z,968.51
2022-10-03T03:23:19.161Z,968.52
2022-10-03T03:24:19.239Z,968.54
2022-10-03T03:25:19.174Z,968.51
2022-10-03T03:27:19.317Z,968.49
2022-10-03T03:28:19.237Z,968.53
2022-10-03T03:29:19.262Z,968.46
2022-10-03T03:30:19.333Z,968.48
2022-10-03T03:31:19.340Z,968.53
2022-10-03T03:32:19.272Z,968.47
2022-10-03T03:33:20.610Z,968.5
2022-10-03T03:34:19.305Z,968.52
2022-10-03T03:35:19.269Z,968.5
2022-10-03T03:36:19.337Z,968.51
2022-10-03T03:37:19.306Z,968.45
2022-10-03T03:38:19.266Z,968.43
2022-10-03T03:39:20.638Z,968.45
2022-10-03T03:40:19.310Z,968.44
2022-10-03T03:41:19.207Z,968.47
2022-10-03T03:42:19.345Z,968.51
2022-10-03T03:43:19.312Z,968.49
2022-10-03T03:44:19.276Z,968.51
2022-10-03T03:45:19.455Z,968.56
2022-10-03T03:46:19.316Z,968.55
2022-10-03T03:47:19.286Z,968.53
2022-10-03T03:48:19.353Z,968.52
2022-10-03T03:49:19.325Z,968.55
2022-10-03T03:50:19.290Z,968.58
2022-10-03T03:51:20.220Z,968.56
2022-10-03T03:52:19.331Z,968.58
2022-10-03T03:53:19.228Z,968.62
2022-10-03T03:54:19.251Z,968.6
2022-10-03T03:55:19.326Z,968.59
2022-10-03T03:57:19.247Z,968.58
2022-10-03T03:58:19.258Z,968.56
2022-10-03T03:59:19.404Z,968.59
2022-10-03T04:00:19.366Z,968.55
2022-10-03T04:01:19.321Z,968.57
2022-10-03T04:02:19.411Z,968.54
2022-10-03T04:03:19.374Z,968.56
2022-10-03T04:04:19.262Z,968.54
2022-10-03T04:05:19.405Z,968.51
2022-10-03T04:06:19.373Z,968.53
2022-10-03T04:07:21.729Z,968.51
2022-10-03T04:08:19.503Z,968.49
2022-10-03T04:11:19.415Z,968.51
2022-10-03T04:12:19.383Z,968.49
2022-10-03T04:13:19.353Z,968.5
2022-10-03T04:14:19.279Z,968.47
2022-10-03T04:15:19.387Z,968.48
2022-10-03T04:16:19.346Z,968.45
2022-10-03T04:17:19.297Z,968.43
2022-10-03T04:18:19.296Z,968.42
2022-10-03T04:19:19.363Z,968.43
2022-10-03T04:20:19.435Z,968.38
2022-10-03T04:21:19.389Z,968.36
2022-10-03T04:22:19.315Z,968.35
2022-10-03T04:23:19.321Z,968.34
2022-10-03T04:25:19.375Z,968.35
2022-10-03T04:26:19.452Z,968.33
2022-10-03T04:27:19.332Z,968.32
2022-10-03T04:29:19.328Z,968.3
2022-10-03T04:30:19.425Z,968.29
2022-10-03T04:31:19.358Z,968.3
2022-10-03T04:32:19.447Z,968.32
2022-10-03T04:33:19.413Z,968.3
2022-10-03T04:34:19.331Z,968.31
2022-10-03T04:36:19.417Z,968.3
2022-10-03T04:37:19.341Z,968.31
2022-10-03T04:38:19.341Z,968.28
2022-10-03T04:39:19.423Z,968.33
2022-10-03T04:40:19.489Z,968.26
2022-10-03T04:41:19.458Z,968.32
2022-10-03T04:42:19.430Z,968.28
2022-10-03T04:43:19.350Z,968.29
2022-10-03T04:46:19.429Z,968.3
2022-10-03T04:47:19.465Z,968.28
2022-10-03T04:48:19.434Z,968.26
2022-10-03T04:49:19.550Z,968.33
2022-10-03T04:51:19.386Z,968.32
2022-10-03T04:53:19.481Z,968.29
2022-10-03T04:54:19.448Z,968.3
2022-10-03T04:55:19.383Z,968.28
2022-10-03T04:56:19.403Z,968.3
2022-10-03T04:57:19.472Z,968.28
2022-10-03T04:58:19.405Z,968.27
2022-10-03T04:59:19.479Z,968.28
2022-10-03T05:00:19.409Z,968.27
2022-10-03T05:01:19.458Z,968.29
2022-10-03T05:02:19.527Z,968.27
2022-10-03T05:03:19.404Z,968.29
2022-10-03T05:04:19.528Z,968.31
2022-10-03T05:05:19.493Z,968.3
2022-10-03T05:06:19.591Z,968.33
2022-10-03T05:07:19.545Z,968.35
2022-10-03T05:08:19.422Z,968.36
2022-10-03T05:09:19.467Z,968.33
2022-10-03T05:10:19.706Z,968.32
2022-10-03T05:11:19.450Z,968.31
2022-10-03T05:12:19.432Z,968.34
2022-10-03T05:14:19.498Z,968.37
2022-10-03T05:20:19.514Z,968.4
2022-10-03T05:21:19.585Z,968.38
2022-10-03T05:22:19.451Z,968.4
2022-10-03T05:23:19.519Z,968.43
2022-10-03T05:25:19.550Z,968.45
2022-10-03T05:27:19.652Z,968.48
2022-10-03T05:28:19.670Z,968.49
2022-10-03T05:29:19.522Z,968.51
2022-10-03T05:30:19.482Z,968.5
2022-10-03T05:31:19.607Z,968.49
2022-10-03T05:32:19.632Z,968.54
2022-10-03T05:33:19.474Z,968.56
2022-10-03T05:34:19.566Z,968.54
2022-10-03T05:35:19.624Z,968.55
2022-10-03T05:36:19.602Z,968.56
2022-10-03T05:37:19.573Z,968.59
2022-10-03T05:38:19.559Z,968.61
2022-10-03T05:39:19.484Z,968.59
2022-10-03T05:40:19.574Z,968.58
2022-10-03T05:41:22.716Z,968.57
2022-10-03T05:42:22.899Z,968.61
2022-10-03T05:43:19.716Z,968.59
2022-10-03T05:44:19.556Z,968.6
2022-10-03T05:45:19.625Z,968.59
2022-10-03T05:46:19.676Z,968.6
2022-10-03T05:47:19.542Z,968.61
2022-10-03T05:49:19.582Z,968.62
2022-10-03T05:50:19.518Z,968.64
2022-10-03T05:51:19.620Z,968.69
2022-10-03T05:52:19.581Z,968.68
2022-10-03T05:53:19.677Z,968.7
2022-10-03T05:54:19.541Z,968.74
2022-10-03T05:55:20.967Z,968.72
2022-10-03T05:56:19.665Z,968.75
2022-10-03T05:57:19.633Z,968.81
2022-10-03T05:58:19.605Z,968.79
2022-10-03T05:59:19.558Z,968.83
2022-10-03T06:01:19.559Z,968.86
2022-10-03T06:03:19.686Z,968.82
2022-10-03T06:04:19.712Z,968.85
2022-10-03T06:05:19.584Z,968.88
2022-10-03T06:07:19.611Z,968.87
2022-10-03T06:08:19.558Z,968.89
2022-10-03T06:09:19.650Z,968.92
2022-10-03T06:10:19.561Z,968.91
2022-10-03T06:11:19.679Z,968.92
2022-10-03T06:12:19.692Z,968.94
2022-10-03T06:13:19.737Z,968.97
2022-10-03T06:16:19.791Z,969.01
2022-10-03T06:17:19.690Z,969
2022-10-03T06:18:19.616Z,969.01
2022-10-03T06:20:19.701Z,969.05
2022-10-03T06:21:19.702Z,969.03
2022-10-03T06:23:19.704Z,969.07
2022-10-03T06:24:19.670Z,969.05
2022-10-03T06:25:19.612Z,969.06
2022-10-03T06:26:19.606Z,969.08
2022-10-03T06:27:19.692Z,969.09
2022-10-03T06:28:19.862Z,969.05
2022-10-03T06:29:19.709Z,969.1
2022-10-03T06:30:19.778Z,969.07
2022-10-03T06:32:19.716Z,969.09
2022-10-03T06:34:19.742Z,969.15
2022-10-03T06:35:19.709Z,969.17
2022-10-03T06:36:19.632Z,969.21
2022-10-03T06:37:19.638Z,969.2
2022-10-03T06:39:19.793Z,969.24
2022-10-03T06:40:19.644Z,969.26
2022-10-03T06:41:19.643Z,969.25
2022-10-03T06:42:20.746Z,969.27
2022-10-03T06:43:19.824Z,969.29
2022-10-03T06:44:19.729Z,969.31
2022-10-03T06:45:19.794Z,969.28
2022-10-03T06:46:19.809Z,969.26
2022-10-03T06:47:19.737Z,969.3
2022-10-03T06:48:19.807Z,969.33
2022-10-03T06:49:19.667Z,969.36
2022-10-03T06:52:19.767Z,969.35
2022-10-03T06:53:19.745Z,969.37
2022-10-03T06:54:19.669Z,969.38
2022-10-03T06:55:19.680Z,969.37
2022-10-03T06:56:19.746Z,969.38
2022-10-03T06:57:19.692Z,969.4
2022-10-03T06:58:19.776Z,969.42
2022-10-03T07:00:19.821Z,969.43
2022-10-03T07:01:19.867Z,969.46
2022-10-03T07:02:19.907Z,969.47
2022-10-03T07:04:19.781Z,969.46
2022-10-03T07:08:33.614Z,969.46
2022-10-03T07:09:06.393Z,969.5
2022-10-03T07:10:06.372Z,969.54
2022-10-03T07:11:06.497Z,969.53
2022-10-03T07:12:08.579Z,969.54
2022-10-03T07:14:38.924Z,969.53
2022-10-03T07:15:14.721Z,969.54
2022-10-03T07:16:26.314Z,969.52
2022-10-03T07:18:14.618Z,969.53
2022-10-03T07:19:14.724Z,969.56
2022-10-03T07:20:14.793Z,969.58
2022-10-03T07:21:16.774Z,969.62
2022-10-03T07:22:14.875Z,969.6
2022-10-03T07:23:14.639Z,969.62
2022-10-03T07:25:14.734Z,969.58
2022-10-03T07:26:14.692Z,969.6
2022-10-03T07:27:14.648Z,969.57
2022-10-03T07:28:14.758Z,969.58
2022-10-03T07:29:14.652Z,969.62
2022-10-03T07:30:14.628Z,969.61
2022-10-03T07:31:14.779Z,969.62
2022-10-03T07:32:14.797Z,969.64
2022-10-03T07:33:14.762Z,969.69
2022-10-03T07:34:14.644Z,969.67
2022-10-03T07:35:14.681Z,969.73
2022-10-03T07:36:14.769Z,969.72
2022-10-03T07:37:14.721Z,969.74
2022-10-03T07:38:14.788Z,969.72
2022-10-03T07:39:14.765Z,969.71
2022-10-03T07:40:14.708Z,969.75
2022-10-03T07:41:16.000Z,969.74
2022-10-03T07:42:14.770Z,969.73
2022-10-03T07:43:14.729Z,969.75
2022-10-03T07:44:14.806Z,969.78
2022-10-03T07:45:14.668Z,969.8
2022-10-03T07:46:14.857Z,969.79
2022-10-03T07:47:14.817Z,969.81
2022-10-03T07:48:14.782Z,969.8
2022-10-03T07:49:18.339Z,969.81
2022-10-03T07:50:14.817Z,969.82
2022-10-03T07:51:14.777Z,969.85
2022-10-03T07:52:14.741Z,969.84
2022-10-03T07:54:14.781Z,969.83
2022-10-03T07:55:14.698Z,969.86
2022-10-03T07:56:14.690Z,969.82
2022-10-03T07:57:14.699Z,969.84
2022-10-03T07:58:14.854Z,969.85
2022-10-03T07:59:14.823Z,969.86
2022-10-03T08:01:15.146Z,969.88
2022-10-03T08:02:14.841Z,969.89
2022-10-03T08:03:14.879Z,969.93
2022-10-03T08:04:14.858Z,969.9
2022-10-03T08:05:14.830Z,969.94
2022-10-03T08:06:14.800Z,969.98
2022-10-03T08:07:14.860Z,969.95
2022-10-03T08:08:14.842Z,970
2022-10-03T08:09:14.797Z,969.96
2022-10-03T08:10:14.879Z,969.99
2022-10-03T08:11:14.865Z,970.02
2022-10-03T08:12:14.817Z,970.04
2022-10-03T08:13:14.871Z,970.06
2022-10-03T08:14:14.845Z,970.07
2022-10-03T08:16:14.785Z,970.09
2022-10-03T08:17:14.858Z,970.1
2022-10-03T08:19:14.855Z,970.09
2022-10-03T08:20:14.850Z,970.1
2022-10-03T08:21:14.924Z,970.07
2022-10-03T08:22:15.732Z,970.09
2022-10-03T08:23:14.767Z,970.12
2022-10-03T08:24:14.934Z,970.13
2022-10-03T08:25:14.904Z,970.15
2022-10-03T08:26:14.857Z,970.14
2022-10-03T08:27:14.930Z,970.11
2022-10-03T08:28:14.830Z,970.1
2022-10-03T08:29:14.867Z,970.12
2022-10-03T08:31:14.861Z,970.13
2022-10-03T08:32:14.858Z,970.07
2022-10-03T08:33:14.864Z,970.08
2022-10-03T08:34:14.803Z,970.05
2022-10-03T08:35:14.866Z,970
2022-10-03T08:36:14.800Z,970.03
2022-10-03T08:39:14.807Z,970.04
2022-10-03T08:40:14.821Z,970.03
2022-10-03T08:42:14.809Z,970.05
2022-10-03T08:43:14.917Z,970.04
2022-10-03T08:45:14.812Z,970.05
2022-10-03T08:46:14.964Z,970.06
2022-10-03T08:47:14.835Z,970.04
2022-10-03T08:48:14.844Z,970.05
2022-10-03T08:49:14.918Z,970.02
2022-10-03T08:50:14.883Z,970.03
2022-10-03T08:51:14.843Z,970
2022-10-03T08:52:14.939Z,970.05
2022-10-03T08:53:14.884Z,969.99
2022-10-03T08:54:14.857Z,970.04
2022-10-03T08:55:14.943Z,969.98
2022-10-03T08:56:15.009Z,969.99
2022-10-03T08:57:14.843Z,970.01
2022-10-03T08:58:14.855Z,970.03
2022-10-03T08:59:15.956Z,970
2022-10-03T09:00:14.966Z,970.02
2022-10-03T09:01:14.964Z,970.01
2022-10-03T09:02:15.123Z,970.05
2022-10-03T09:03:32.430Z,970.03
2022-10-03T09:04:14.962Z,970.05
2022-10-03T09:08:15.002Z,970.01
2022-10-03T09:09:15.026Z,969.99
2022-10-03T09:10:14.889Z,969.98
2022-10-03T09:14:14.930Z,969.96
2022-10-03T09:15:14.907Z,969.97
2022-10-03T09:17:15.042Z,969.96
2022-10-03T09:18:14.899Z,969.94
2022-10-03T09:19:14.967Z,969.91
2022-10-03T09:20:15.035Z,969.94
2022-10-03T09:22:15.071Z,969.96
2022-10-03T09:23:15.045Z,969.98
2022-10-03T09:24:14.923Z,969.99
2022-10-03T09:25:15.073Z,969.96
2022-10-03T09:26:14.919Z,969.93
2022-10-03T09:27:14.949Z,969.86
2022-10-03T09:28:15.045Z,969.84
2022-10-03T09:29:14.937Z,969.79
2022-10-03T09:30:15.023Z,969.73
2022-10-03T09:31:14.959Z,969.69
2022-10-03T09:32:14.936Z,969.73
2022-10-03T09:33:14.928Z,969.75
2022-10-03T09:34:14.947Z,969.78
2022-10-03T09:35:15.070Z,969.77
2022-10-03T09:36:15.030Z,969.74
2022-10-03T09:37:15.100Z,969.78
2022-10-03T09:38:14.943Z,969.77
2022-10-03T09:39:15.024Z,969.76
2022-10-03T09:40:16.998Z,969.74
2022-10-03T09:41:15.075Z,969.78
2022-10-03T09:42:15.028Z,969.76
2022-10-03T09:44:15.069Z,969.77
2022-10-03T09:45:15.046Z,969.73
2022-10-03T09:46:15.015Z,969.72
2022-10-03T09:47:15.087Z,969.75
2022-10-03T09:48:15.056Z,969.71
2022-10-03T09:49:15.109Z,969.66
2022-10-03T09:50:14.979Z,969.53
2022-10-03T09:51:15.043Z,969.55
2022-10-03T09:52:14.989Z,969.54
2022-10-03T09:53:14.987Z,969.48
2022-10-03T09:54:16.293Z,969.46
2022-10-03T09:56:14.998Z,969.43
2022-10-03T09:57:16.784Z,969.39
2022-10-03T09:58:15.005Z,969.36
2022-10-03T09:59:15.095Z,969.32
2022-10-03T10:00:15.007Z,969.34
2022-10-03T10:01:15.067Z,969.29
2022-10-03T10:02:15.008Z,969.27
2022-10-03T10:04:15.052Z,969.23
2022-10-03T10:06:15.172Z,969.19
2022-10-03T10:07:15.144Z,969.22
2022-10-03T10:09:15.059Z,969.23
2022-10-03T10:10:15.028Z,969.21
2022-10-03T10:11:15.122Z,969.2
2022-10-03T10:12:15.175Z,969.16
2022-10-03T10:13:15.039Z,969.19
2022-10-03T10:14:15.129Z,969.23
2022-10-03T10:15:15.040Z,969.2
2022-10-03T10:16:15.106Z,969.23
2022-10-03T10:17:15.110Z,969.2
2022-10-03T10:18:15.080Z,969.18
2022-10-03T10:19:15.140Z,969.19
2022-10-03T10:20:15.121Z,969.16
2022-10-03T10:21:15.060Z,969.15
2022-10-03T10:22:15.155Z,969.18
2022-10-03T10:23:15.227Z,969.17
2022-10-03T10:25:15.077Z,969.21
2022-10-03T10:26:15.065Z,969.23
2022-10-03T10:27:15.073Z,969.21
2022-10-03T10:28:15.205Z,969.27
2022-10-03T10:29:15.225Z,969.24
2022-10-03T10:30:15.162Z,969.25
2022-10-03T10:31:15.225Z,969.26
2022-10-03T10:32:19.087Z,969.29
2022-10-03T10:33:15.238Z,969.28
2022-10-03T10:34:15.076Z,969.31
2022-10-03T10:35:15.248Z,969.34
2022-10-03T10:36:15.205Z,969.33
2022-10-03T10:37:15.097Z,969.39
2022-10-03T10:39:15.210Z,969.45
2022-10-03T10:40:15.187Z,969.43
2022-10-03T10:41:15.249Z,969.46
2022-10-03T10:42:15.219Z,969.41
2022-10-03T10:43:15.787Z,969.42
2022-10-03T10:44:15.281Z,969.41
2022-10-03T10:45:15.223Z,969.37
2022-10-03T10:46:15.166Z,969.38
2022-10-03T10:47:15.181Z,969.41
2022-10-03T10:48:15.224Z,969.37
2022-10-03T10:49:15.125Z,969.4
2022-10-03T10:50:15.199Z,969.37
2022-10-03T10:51:15.236Z,969.33
2022-10-03T10:52:15.201Z,969.35
2022-10-03T10:53:15.184Z,969.36
2022-10-03T10:54:15.131Z,969.34
2022-10-03T10:55:15.209Z,969.37
2022-10-03T10:56:15.292Z,969.39
2022-10-03T10:57:15.237Z,969.32
2022-10-03T10:59:15.153Z,969.34
2022-10-03T11:00:15.292Z,969.32
2022-10-03T11:01:15.291Z,969.33
2022-10-03T11:02:15.149Z,969.29
2022-10-03T11:03:15.170Z,969.35
2022-10-03T11:05:15.180Z,969.31
2022-10-03T11:06:15.184Z,969.33
2022-10-03T11:07:15.170Z,969.28
2022-10-03T11:08:15.290Z,969.24
2022-10-03T11:10:15.320Z,969.15
2022-10-03T11:11:15.303Z,969.07
2022-10-03T11:13:15.329Z,969.06
2022-10-03T11:14:15.185Z,969.1
2022-10-03T11:16:16.307Z,969.15
2022-10-03T11:17:15.192Z,969.19
2022-10-03T11:18:15.193Z,969.21
2022-10-03T11:19:15.205Z,969.24
2022-10-03T11:22:15.203Z,969.17
2022-10-03T11:23:15.198Z,969.15
2022-10-03T11:25:15.247Z,969.08
2022-10-03T11:26:15.224Z,969.04
2022-10-03T11:28:18.642Z,969
2022-10-03T11:29:15.251Z,968.99
2022-10-03T11:30:15.393Z,969.03
2022-10-03T11:31:15.273Z,969
2022-10-03T11:32:15.246Z,969.02
2022-10-03T11:33:15.292Z,969.05
2022-10-03T11:34:15.231Z,969.08
2022-10-03T11:35:15.254Z,969.05
2022-10-03T11:36:15.310Z,969.15
2022-10-03T11:37:15.383Z,969.13
2022-10-03T11:40:15.362Z,969.1
2022-10-03T11:41:15.335Z,969.05
2022-10-03T11:42:15.402Z,969.09
2022-10-03T11:43:15.365Z,969.01
2022-10-03T11:44:15.334Z,969
2022-10-03T11:45:15.296Z,968.97
2022-10-03T11:46:15.382Z,968.99
2022-10-03T11:47:15.271Z,968.98
2022-10-03T11:48:15.323Z,968.99
2022-10-03T11:50:15.345Z,969.03
2022-10-03T11:51:15.292Z,969.01
2022-10-03T11:52:15.380Z,969.09
2022-10-03T11:53:15.351Z,969.16
2022-10-03T11:54:30.323Z,969.15
2022-10-03T11:55:15.393Z,969.17
2022-10-03T11:56:15.314Z,969.21
2022-10-03T11:57:15.296Z,969.25
2022-10-03T11:58:15.391Z,969.26
2022-10-03T11:59:15.297Z,969.23
2022-10-03T12:00:15.343Z,969.2
2022-10-03T12:01:15.404Z,969.18
2022-10-03T12:02:15.368Z,969.16
2022-10-03T12:03:15.359Z,969.14
2022-10-03T12:04:15.307Z,969.16
2022-10-03T12:05:15.483Z,969.14
2022-10-03T12:06:15.428Z,969.09
2022-10-03T12:07:17.473Z,969.1
2022-10-03T12:08:15.311Z,969.08
2022-10-03T12:09:15.441Z,969.04
2022-10-03T12:11:15.483Z,968.98
2022-10-03T12:12:15.451Z,968.9
2022-10-03T12:14:15.339Z,968.88
2022-10-03T12:15:15.442Z,968.89
2022-10-03T12:18:15.453Z,968.88
2022-10-03T12:19:15.408Z,968.91
2022-10-03T12:20:15.500Z,968.93
2022-10-03T12:22:15.413Z,968.94
2022-10-03T12:23:15.495Z,968.9
2022-10-03T12:24:15.356Z,968.96
2022-10-03T12:25:15.433Z,968.93
2022-10-03T12:31:18.864Z,968.92
2022-10-03T12:34:15.447Z,968.88
2022-10-03T12:35:15.403Z,968.95
2022-10-03T12:36:15.528Z,968.92
2022-10-03T12:37:15.554Z,968.94
2022-10-03T12:38:15.401Z,968.97
2022-10-03T12:39:15.503Z,969
2022-10-03T12:41:15.529Z,968.99
2022-10-03T12:44:15.559Z,969.01
2022-10-03T12:46:15.537Z,969.03
2022-10-03T12:47:15.433Z,968.94
2022-10-03T12:48:15.489Z,969.04
2022-10-03T12:49:16.578Z,969.03
2022-10-03T12:50:15.539Z,968.98
2022-10-03T12:51:15.506Z,968.99
2022-10-03T12:52:15.483Z,968.96
2022-10-03T12:54:16.646Z,968.97
2022-10-03T12:55:15.497Z,968.99
2022-10-03T12:56:15.543Z,968.98
2022-10-03T12:57:15.502Z,968.97
2022-10-03T12:58:15.583Z,968.9
2022-10-03T13:00:15.445Z,968.89
2022-10-03T13:01:15.493Z,968.87
2022-10-03T13:02:15.517Z,968.89
2022-10-03T13:03:15.631Z,968.91
2022-10-03T13:04:15.638Z,968.82
2022-10-03T13:05:15.552Z,968.76
2022-10-03T13:07:15.476Z,968.81
2022-10-03T13:08:15.568Z,968.79
2022-10-03T13:09:16.719Z,968.8
2022-10-03T13:10:15.600Z,968.78
2022-10-03T13:11:15.475Z,968.81
2022-10-03T13:12:15.635Z,968.77
2022-10-03T13:13:15.588Z,968.75
2022-10-03T13:14:15.495Z,968.72
2022-10-03T13:15:15.531Z,968.66
2022-10-03T13:16:15.567Z,968.61
2022-10-03T13:17:15.577Z,968.66
2022-10-03T13:18:15.533Z,968.67
2022-10-03T13:19:15.506Z,968.65
2022-10-03T13:20:15.566Z,968.66
2022-10-03T13:21:41.039Z,968.67
2022-10-03T13:22:15.491Z,968.61
2022-10-03T13:23:15.502Z,968.63
2022-10-03T13:24:15.546Z,968.66
2022-10-03T13:25:15.594Z,968.65
2022-10-03T13:26:18.241Z,968.64
2022-10-03T13:27:15.652Z,968.65
2022-10-03T13:28:15.724Z,968.6
2022-10-03T13:29:15.688Z,968.59
2022-10-03T13:30:15.556Z,968.55
2022-10-03T13:31:15.651Z,968.58
2022-10-03T13:32:17.374Z,968.56
2022-10-03T13:34:15.624Z,968.57
2022-10-03T13:35:15.565Z,968.51
2022-10-03T13:36:15.544Z,968.56
2022-10-03T13:37:15.621Z,968.55
2022-10-03T13:38:15.597Z,968.53
2022-10-03T13:39:15.548Z,968.52
2022-10-03T13:40:15.634Z,968.59
2022-10-03T13:41:15.611Z,968.65
2022-10-03T13:42:15.684Z,968.68
2022-10-03T13:43:15.641Z,968.65
2022-10-03T13:45:15.682Z,968.62
2022-10-03T13:47:15.700Z,968.67
2022-10-03T13:48:15.669Z,968.63
2022-10-03T13:49:15.758Z,968.66
2022-10-03T13:50:15.592Z,968.63
2022-10-03T13:51:15.684Z,968.62
2022-10-03T13:52:15.756Z,968.61
2022-10-03T13:53:15.619Z,968.57
2022-10-03T13:54:15.581Z,968.55
2022-10-03T13:55:15.650Z,968.53
2022-10-03T13:57:15.685Z,968.57
2022-10-03T13:58:15.608Z,968.55
2022-10-03T13:59:15.732Z,968.5
2022-10-03T14:00:15.708Z,968.46
2022-10-03T14:01:15.763Z,968.49
2022-10-03T14:02:15.810Z,968.53
2022-10-03T14:03:15.599Z,968.49
2022-10-03T14:04:15.787Z,968.47
2022-10-03T14:05:15.630Z,968.46
2022-10-03T14:06:15.662Z,968.44
2022-10-03T14:07:15.654Z,968.45
2022-10-03T14:08:15.636Z,968.47
2022-10-03T14:09:15.710Z,968.45
2022-10-03T14:10:15.775Z,968.49
2022-10-03T14:11:15.630Z,968.46
2022-10-03T14:12:15.636Z,968.44
2022-10-03T14:13:15.636Z,968.41
2022-10-03T14:14:15.785Z,968.4
2022-10-03T14:15:15.629Z,968.38
2022-10-03T14:16:15.683Z,968.32
2022-10-03T14:17:15.761Z,968.36
2022-10-03T14:18:15.713Z,968.31
2022-10-03T14:19:15.789Z,968.33
2022-10-03T14:20:15.761Z,968.31
2022-10-03T14:21:15.672Z,968.3
2022-10-03T14:22:16.642Z,968.34
2022-10-03T14:23:15.777Z,968.42
2022-10-03T14:24:15.725Z,968.37
2022-10-03T14:25:15.686Z,968.36
2022-10-03T14:26:15.687Z,968.34
2022-10-03T14:27:15.831Z,968.33
2022-10-03T14:28:15.681Z,968.25
2022-10-03T14:29:15.779Z,968.18
2022-10-03T14:30:15.730Z,968.19
2022-10-03T14:32:35.270Z,968.14
2022-10-03T14:33:16.870Z,968.09
2022-10-03T14:35:15.787Z,968.11
2022-10-03T14:36:15.741Z,968.13
2022-10-03T14:37:15.726Z,968.11
2022-10-03T14:38:15.693Z,968.08
2022-10-03T14:39:15.759Z,968.1